Time;durP1;ratioP1;P1;durP2;ratioP2;P2;SDS_P1;SDS_P2;PMS_P1;PMS_P2;Temp;Humidity;BMP_temperature;BMP_pressure;BME280_temperature;BME280_humidity;BME280_pressure;Samples;Min_cycle;Max_cycle;Signal;HPM_P1;HPM_P2
2022/01/10 00:02:10;;;;;;;36.13;19.70;;;-1.40;99.90;;;;;;5035007;28;20648;-70
2022/01/10 00:04:37;;;;;;;40.53;21.90;;;-1.40;99.90;;;;;;5033016;28;20213;-70
2022/01/10 00:07:04;;;;;;;41.37;21.90;;;-1.40;99.90;;;;;;5032928;28;20295;-71
2022/01/10 00:09:31;;;;;;;43.87;22.37;;;-1.40;99.90;;;;;;5033430;28;20245;-70
2022/01/10 00:11:59;;;;;;;45.03;21.37;;;-1.50;99.90;;;;;;5032158;28;20221;-70
2022/01/10 00:14:26;;;;;;;50.40;23.90;;;-1.50;99.90;;;;;;5032578;28;20230;-72
2022/01/10 00:16:53;;;;;;;55.93;26.40;;;-1.60;99.90;;;;;;5045713;28;20328;-70
2022/01/10 00:19:20;;;;;;;48.77;25.70;;;-1.70;99.90;;;;;;5033780;28;20199;-71
2022/01/10 00:21:47;;;;;;;49.77;23.53;;;-1.70;99.90;;;;;;5031394;28;20202;-71
2022/01/10 00:24:14;;;;;;;53.27;25.77;;;-1.80;99.90;;;;;;5032577;28;20199;-71
2022/01/10 00:26:41;;;;;;;41.23;22.87;;;-1.90;99.90;;;;;;5032818;28;20583;-71
2022/01/10 00:29:09;;;;;;;52.03;24.63;;;-2.00;99.90;;;;;;5035289;28;20668;-72
2022/01/10 00:31:36;;;;;;;57.90;26.10;;;-2.00;99.90;;;;;;5039997;28;20264;-71
2022/01/10 00:34:03;;;;;;;51.40;24.27;;;-2.10;99.90;;;;;;5031954;28;20211;-71
2022/01/10 00:36:30;;;;;;;50.97;24.17;;;-2.20;99.90;;;;;;5032235;28;20211;-71
2022/01/10 00:38:56;;;;;;;46.93;24.27;;;-2.20;99.90;;;;;;5044598;28;20202;-70
2022/01/10 00:41:23;;;;;;;47.17;23.70;;;-2.30;99.90;;;;;;5033323;28;20670;-70
2022/01/10 00:43:51;;;;;;;44.70;22.47;;;-2.30;99.90;;;;;;5032168;28;20211;-70
2022/01/10 00:46:19;;;;;;;41.90;20.87;;;-2.30;99.90;;;;;;5032424;28;20207;-70
2022/01/10 00:48:47;;;;;;;42.90;21.10;;;-2.20;99.90;;;;;;5037989;28;20654;-70
2022/01/10 00:51:14;;;;;;;53.57;22.30;;;-2.30;99.90;;;;;;5039578;28;20202;-70
2022/01/10 00:53:43;;;;;;;45.77;21.27;;;-2.30;99.90;;;;;;5031493;28;20722;-70
2022/01/10 00:56:10;;;;;;;47.30;21.20;;;-2.40;99.90;;;;;;5032239;28;20254;-70
2022/01/10 00:58:37;;;;;;;46.50;22.10;;;-2.40;99.90;;;;;;5031894;28;20211;-70
2022/01/10 01:01:04;;;;;;;43.83;21.53;;;-2.40;99.90;;;;;;5036950;28;20233;-70
2022/01/10 01:03:33;;;;;;;47.17;22.17;;;-2.40;99.90;;;;;;5027486;28;20217;-71
2022/01/10 01:06:00;;;;;;;48.97;21.43;;;-2.40;99.90;;;;;;5029619;28;20241;-70
2022/01/10 01:08:28;;;;;;;44.97;20.87;;;-2.50;99.90;;;;;;5026964;28;20221;-71
2022/01/10 01:13:52;;;;;;;40.73;20.50;;;-2.50;99.90;;;;;;5014960;28;20214;-72
2022/01/10 01:16:31;;;;;;;40.70;19.63;;;-2.50;99.90;;;;;;5032676;28;20624;-71
2022/01/10 01:19:14;;;;;;;45.20;21.40;;;-2.50;99.90;;;;;;5035143;28;20238;-71
2022/01/10 01:24:25;;;;;;;42.83;20.87;;;-2.50;99.90;;;;;;5050451;28;20201;-71
2022/01/10 01:26:54;;;;;;;45.50;21.70;;;-2.50;99.90;;;;;;5037191;28;20721;-71
2022/01/10 01:29:23;;;;;;;44.07;21.37;;;-2.50;99.90;;;;;;5036747;28;20294;-70
2022/01/10 01:31:51;;;;;;;42.00;20.80;;;-2.40;99.90;;;;;;5036187;28;20418;-70
2022/01/10 01:34:22;;;;;;;45.93;20.93;;;-2.40;99.90;;;;;;5033750;28;20219;-71
2022/01/10 01:36:52;;;;;;;46.70;20.83;;;-2.40;99.90;;;;;;5026311;28;20266;-71
2022/01/10 01:39:21;;;;;;;38.67;20.07;;;-2.30;99.90;;;;;;5033555;28;20206;-71
2022/01/10 01:41:49;;;;;;;41.43;19.83;;;-2.30;99.90;;;;;;5046821;28;20676;-70
2022/01/10 01:44:17;;;;;;;40.47;20.23;;;-2.30;99.90;;;;;;5036040;28;20211;-70
2022/01/10 01:46:44;;;;;;;39.17;19.17;;;-2.20;99.90;;;;;;5028488;28;20203;-71
2022/01/10 01:49:11;;;;;;;39.70;19.13;;;-2.20;99.90;;;;;;5037382;28;20210;-70
2022/01/10 01:51:40;;;;;;;40.83;19.40;;;-2.10;99.90;;;;;;5040460;28;20203;-70
2022/01/10 01:54:09;;;;;;;39.47;19.07;;;-2.10;99.90;;;;;;5036425;28;20211;-70
2022/01/10 01:56:36;;;;;;;35.77;18.83;;;-2.10;99.90;;;;;;5049528;28;20253;-70
2022/01/10 01:59:03;;;;;;;38.43;18.23;;;-2.10;99.90;;;;;;5035003;28;20456;-70
2022/01/10 02:01:30;;;;;;;38.27;18.93;;;-2.10;99.90;;;;;;5036107;28;20202;-70
2022/01/10 02:03:57;;;;;;;32.50;16.60;;;-2.00;99.90;;;;;;5034662;28;20217;-70
2022/01/10 02:06:24;;;;;;;31.13;16.97;;;-2.00;99.90;;;;;;5039950;28;20301;-70
2022/01/10 02:08:52;;;;;;;33.30;16.30;;;-2.00;99.90;;;;;;5041154;28;20729;-71
2022/01/10 02:11:19;;;;;;;36.83;17.03;;;-2.00;99.90;;;;;;5044360;28;20206;-71
2022/01/10 02:13:46;;;;;;;32.97;16.67;;;-2.10;99.90;;;;;;5034102;28;20207;-71
2022/01/10 02:16:20;;;;;;;37.80;17.87;;;-2.00;99.90;;;;;;5035230;28;20223;-70
2022/01/10 02:18:46;;;;;;;40.63;17.77;;;-2.00;99.90;;;;;;5048794;28;20220;-70
2022/01/10 02:21:15;;;;;;;35.77;18.10;;;-1.60;99.90;;;;;;5035195;28;20206;-70
2022/01/10 02:23:43;;;;;;;34.57;17.43;;;-2.00;99.90;;;;;;5047990;28;20213;-71
2022/01/10 02:26:10;;;;;;;34.53;16.57;;;-1.90;99.90;;;;;;5034080;28;20205;-70
2022/01/10 02:28:37;;;;;;;36.70;17.80;;;-1.90;99.90;;;;;;5034488;28;20679;-70
2022/01/10 02:31:05;;;;;;;32.60;17.40;;;-1.80;99.90;;;;;;5047097;28;20202;-70
2022/01/10 02:33:32;;;;;;;33.83;17.03;;;-1.80;99.90;;;;;;5033781;28;20237;-70
2022/01/10 02:36:09;;;;;;;32.30;16.00;;;-1.70;99.90;;;;;;5039287;28;20234;-70
2022/01/10 02:38:45;;;;;;;30.60;15.17;;;-1.60;99.90;;;;;;5034413;28;20718;-70
2022/01/10 02:41:12;;;;;;;33.30;15.70;;;-1.60;99.90;;;;;;5042366;28;20508;-70
2022/01/10 02:43:39;;;;;;;36.07;17.13;;;-1.60;99.90;;;;;;5043248;28;20206;-70
2022/01/10 02:46:06;;;;;;;31.90;16.60;;;-1.60;99.90;;;;;;5038464;28;20216;-70
2022/01/10 02:48:33;;;;;;;29.73;15.07;;;-1.70;99.90;;;;;;5037970;28;20229;-70
2022/01/10 02:50:59;;;;;;;28.13;14.27;;;-1.70;99.90;;;;;;5043670;28;20638;-71
2022/01/10 02:53:26;;;;;;;34.03;15.90;;;-1.70;99.90;;;;;;5035397;28;20298;-70
2022/01/10 02:55:54;;;;;;;35.57;16.60;;;-1.60;99.90;;;;;;5045598;28;20658;-71
2022/01/10 02:58:21;;;;;;;32.03;16.10;;;-1.60;99.90;;;;;;5033720;28;20249;-70
2022/01/10 03:00:48;;;;;;;33.40;16.63;;;-1.60;99.90;;;;;;5033511;28;20206;-70
2022/01/10 03:03:15;;;;;;;35.40;17.43;;;-1.50;99.90;;;;;;5033520;28;20214;-70
2022/01/10 03:05:42;;;;;;;32.00;16.27;;;-1.50;99.90;;;;;;5035089;28;20232;-70
2022/01/10 03:08:09;;;;;;;34.03;17.53;;;-1.40;99.90;;;;;;5042363;28;20210;-70
2022/01/10 03:10:35;;;;;;;29.40;15.93;;;-1.40;99.90;;;;;;5048008;28;20289;-70
2022/01/10 03:13:04;;;;;;;30.03;16.57;;;-1.40;99.90;;;;;;5033984;28;20214;-70
2022/01/10 03:15:31;;;;;;;37.43;17.40;;;-1.40;99.90;;;;;;5033469;28;20227;-70
2022/01/10 03:17:58;;;;;;;29.60;16.47;;;-1.40;99.90;;;;;;5033117;28;20225;-71
2022/01/10 03:20:25;;;;;;;33.67;16.73;;;-1.40;99.90;;;;;;5036902;28;20215;-70
2022/01/10 03:22:52;;;;;;;28.00;14.87;;;-1.40;99.90;;;;;;5044076;28;20557;-70
2022/01/10 03:25:19;;;;;;;30.73;16.17;;;-1.40;99.90;;;;;;5032986;28;20210;-70
2022/01/10 03:27:46;;;;;;;33.03;15.27;;;-1.40;99.90;;;;;;5033004;28;20209;-70
2022/01/10 03:30:16;;;;;;;30.47;15.77;;;-1.40;99.90;;;;;;5034305;28;20218;-70
2022/01/10 03:32:43;;;;;;;26.63;14.70;;;-1.40;99.90;;;;;;5033494;28;20218;-70
2022/01/10 03:35:11;;;;;;;32.10;14.57;;;-1.40;99.90;;;;;;5031522;28;20234;-70
2022/01/10 03:37:38;;;;;;;30.10;15.53;;;-1.40;99.90;;;;;;5032861;28;20441;-70
2022/01/10 03:40:06;;;;;;;29.83;15.20;;;-1.30;99.90;;;;;;5041140;28;20760;-71
2022/01/10 03:42:33;;;;;;;23.77;13.23;;;-1.30;99.90;;;;;;5051517;28;20206;-70
2022/01/10 03:45:00;;;;;;;21.80;12.70;;;-1.40;99.90;;;;;;5033043;28;20210;-70
2022/01/10 03:47:28;;;;;;;24.00;13.07;;;-1.40;99.90;;;;;;5033258;28;20214;-70
2022/01/10 03:49:55;;;;;;;23.10;12.60;;;-1.40;99.90;;;;;;5046623;28;20305;-70
2022/01/10 03:52:22;;;;;;;20.33;11.43;;;-1.40;99.90;;;;;;5032877;28;20640;-70
2022/01/10 03:54:49;;;;;;;21.60;11.63;;;-1.40;99.90;;;;;;5032841;28;20214;-70
2022/01/10 03:57:16;;;;;;;26.33;13.67;;;-1.40;99.90;;;;;;5032470;28;20692;-71
2022/01/10 03:59:43;;;;;;;22.00;11.30;;;-1.40;99.90;;;;;;5032699;28;20214;-72
2022/01/10 04:02:10;;;;;;;23.37;12.33;;;-1.40;99.90;;;;;;5032124;28;20783;-71
2022/01/10 04:04:39;;;;;;;23.13;11.97;;;-1.40;99.90;;;;;;5032649;28;20225;-70
2022/01/10 04:07:06;;;;;;;24.07;12.90;;;-1.40;99.90;;;;;;5031972;28;20203;-71
2022/01/10 04:09:33;;;;;;;27.60;13.13;;;-1.40;99.90;;;;;;5033039;28;20196;-71
2022/01/10 04:12:00;;;;;;;26.90;13.57;;;-1.40;99.90;;;;;;5033519;28;20220;-70
2022/01/10 04:14:27;;;;;;;24.57;13.17;;;-1.40;99.90;;;;;;5045364;28;20550;-70
2022/01/10 04:16:54;;;;;;;25.07;12.07;;;-1.30;99.90;;;;;;5045592;28;20221;-70
2022/01/10 04:19:21;;;;;;;26.70;12.73;;;-1.30;99.90;;;;;;5033757;28;20209;-70
2022/01/10 04:21:49;;;;;;;25.93;12.40;;;-1.30;99.90;;;;;;5044124;28;20206;-71
2022/01/10 04:24:16;;;;;;;25.97;13.07;;;-1.30;99.90;;;;;;5034413;28;20647;-70
2022/01/10 04:26:43;;;;;;;23.23;13.13;;;-1.30;99.90;;;;;;5034976;28;20221;-70
2022/01/10 04:29:10;;;;;;;27.70;13.80;;;-1.30;99.90;;;;;;5028772;28;20506;-70
2022/01/10 04:31:37;;;;;;;28.80;14.10;;;-0.70;99.90;;;;;;5032647;28;20206;-70
2022/01/10 04:34:03;;;;;;;25.67;14.13;;;-1.20;99.90;;;;;;5032641;28;20577;-70
2022/01/10 04:36:30;;;;;;;29.37;14.97;;;-1.20;99.90;;;;;;5026315;28;20325;-70
2022/01/10 04:38:58;;;;;;;26.00;12.37;;;-1.10;99.90;;;;;;5032907;28;20225;-70
2022/01/10 04:41:25;;;;;;;28.60;13.80;;;-1.10;99.90;;;;;;5045946;28;20222;-70
2022/01/10 04:43:52;;;;;;;24.97;12.87;;;-1.00;99.90;;;;;;5033034;28;20207;-70
2022/01/10 04:46:19;;;;;;;25.70;13.27;;;-1.00;99.90;;;;;;5046804;28;20205;-70
2022/01/10 04:48:46;;;;;;;24.07;13.33;;;-1.00;99.90;;;;;;5038333;28;20210;-71
2022/01/10 04:51:15;;;;;;;26.77;13.40;;;-1.00;99.90;;;;;;5029208;28;20207;-70
2022/01/10 04:53:43;;;;;;;25.30;14.03;;;-1.00;99.90;;;;;;5037227;28;20214;-70
2022/01/10 04:56:12;;;;;;;27.70;14.17;;;-1.00;99.90;;;;;;5045253;28;20234;-71
2022/01/10 04:58:39;;;;;;;29.07;14.07;;;-1.00;99.90;;;;;;5039691;28;20640;-70
2022/01/10 05:01:07;;;;;;;26.13;13.43;;;-0.90;99.90;;;;;;5047065;28;20216;-71
2022/01/10 05:03:34;;;;;;;31.33;14.10;;;-1.00;99.90;;;;;;5037431;28;20206;-71
2022/01/10 05:06:02;;;;;;;27.63;14.17;;;-0.90;99.90;;;;;;5024561;28;20571;-70
2022/01/10 05:08:29;;;;;;;27.07;14.00;;;-0.90;99.90;;;;;;5035831;28;20206;-69
2022/01/10 05:10:56;;;;;;;30.03;13.50;;;-0.90;99.90;;;;;;5035997;28;20245;-70
2022/01/10 05:13:25;;;;;;;26.47;14.13;;;-1.30;99.90;;;;;;5036155;28;20302;-70
2022/01/10 05:15:53;;;;;;;25.87;13.20;;;-0.90;99.90;;;;;;5035805;28;20218;-70
2022/01/10 05:18:21;;;;;;;30.83;14.70;;;-0.90;99.90;;;;;;5036819;28;20210;-69
2022/01/10 05:20:49;;;;;;;30.20;15.23;;;-0.90;99.90;;;;;;5040009;28;20228;-70
2022/01/10 05:23:16;;;;;;;27.67;14.97;;;-0.90;99.90;;;;;;5046508;28;20270;-70
2022/01/10 05:25:43;;;;;;;27.00;14.23;;;-0.90;99.90;;;;;;5037693;28;20207;-69
2022/01/10 05:28:11;;;;;;;31.37;14.37;;;-0.90;99.90;;;;;;5047980;28;20209;-70
2022/01/10 05:30:40;;;;;;;29.83;15.10;;;-0.80;99.90;;;;;;5035922;28;20206;-71
2022/01/10 05:33:08;;;;;;;26.50;14.37;;;-0.70;99.90;;;;;;5035607;28;20203;-70
2022/01/10 05:35:36;;;;;;;29.03;14.57;;;-0.70;99.90;;;;;;5035791;28;20218;-70
2022/01/10 05:38:04;;;;;;;31.20;14.73;;;-0.70;99.90;;;;;;5043268;28;20730;-70
2022/01/10 05:40:31;;;;;;;29.63;15.23;;;-0.60;99.90;;;;;;5041971;28;20214;-70
2022/01/10 05:42:58;;;;;;;31.70;16.63;;;-0.60;99.90;;;;;;5049931;28;20213;-70
2022/01/10 05:45:25;;;;;;;37.10;17.67;;;-0.50;99.90;;;;;;5036206;28;20215;-70
2022/01/10 05:47:53;;;;;;;38.43;17.00;;;-0.50;99.90;;;;;;5034845;28;20228;-70
2022/01/10 05:50:32;;;;;;;34.80;17.37;;;-0.50;99.90;;;;;;5041197;28;20198;-70
2022/01/10 05:52:59;;;;;;;34.90;16.43;;;-0.40;99.90;;;;;;5040717;28;20215;-71
2022/01/10 05:55:26;;;;;;;36.40;18.20;;;-0.40;99.90;;;;;;5049135;28;20694;-70
2022/01/10 05:57:53;;;;;;;38.73;17.50;;;-0.40;99.90;;;;;;5035546;28;20240;-71
2022/01/10 06:00:20;;;;;;;39.23;18.37;;;-0.40;99.90;;;;;;5037762;28;20209;-71
2022/01/10 06:02:47;;;;;;;36.03;17.90;;;-0.40;99.90;;;;;;5033751;28;20206;-72
2022/01/10 06:05:15;;;;;;;36.63;17.40;;;-0.40;99.90;;;;;;5021791;28;20214;-71
2022/01/10 06:07:42;;;;;;;36.30;17.27;;;-0.40;99.90;;;;;;5034634;28;20389;-70
2022/01/10 06:10:09;;;;;;;36.83;17.53;;;-0.40;99.90;;;;;;5034979;28;20447;-70
2022/01/10 06:12:36;;;;;;;37.90;17.90;;;-0.40;99.90;;;;;;5020557;28;20210;-70
2022/01/10 06:15:03;;;;;;;40.67;19.30;;;-0.40;99.90;;;;;;5034197;28;20217;-71
2022/01/10 06:17:30;;;;;;;37.13;17.47;;;-0.40;99.90;;;;;;5031472;28;20227;-71
2022/01/10 06:19:59;;;;;;;39.67;18.83;;;-0.30;99.90;;;;;;5034388;28;20203;-70
2022/01/10 06:22:27;;;;;;;41.03;19.40;;;-0.30;99.90;;;;;;5021234;28;20241;-71
2022/01/10 06:24:55;;;;;;;44.67;19.77;;;-0.40;99.90;;;;;;5032254;28;20217;-70
2022/01/10 06:27:22;;;;;;;44.40;20.03;;;-0.40;99.90;;;;;;5034167;28;20573;-69
2022/01/10 06:29:49;;;;;;;40.93;19.87;;;-0.40;99.90;;;;;;5034181;28;20218;-69
2022/01/10 06:32:16;;;;;;;36.20;17.93;;;-0.50;99.90;;;;;;5046196;28;20214;-70
2022/01/10 06:34:43;;;;;;;34.50;18.23;;;-0.50;99.90;;;;;;5035326;28;20237;-71
2022/01/10 06:37:10;;;;;;;40.93;19.97;;;-0.50;99.90;;;;;;5038836;28;20789;-71
2022/01/10 06:39:38;;;;;;;37.20;19.80;;;-0.50;99.90;;;;;;5053829;28;20305;-71
2022/01/10 06:42:06;;;;;;;42.80;20.90;;;-0.50;99.90;;;;;;5053874;28;20210;-71
2022/01/10 06:44:33;;;;;;;48.00;21.30;;;-0.50;99.90;;;;;;5040958;28;20193;-71
2022/01/10 06:46:59;;;;;;;45.20;20.63;;;-0.50;99.90;;;;;;5052813;28;20571;-70
2022/01/10 06:49:26;;;;;;;50.57;22.10;;;-0.50;99.90;;;;;;5050841;28;20221;-71
2022/01/10 06:51:53;;;;;;;46.73;23.37;;;-0.50;99.90;;;;;;5033747;28;20277;-72
2022/01/10 06:54:20;;;;;;;44.83;21.83;;;-0.40;99.90;;;;;;5046493;28;20256;-72
2022/01/10 06:56:48;;;;;;;47.43;22.63;;;-0.40;99.90;;;;;;5041699;28;20229;-72
2022/01/10 06:59:15;;;;;;;44.90;22.17;;;-0.40;99.90;;;;;;5040885;28;20274;-72
2022/01/10 07:01:42;;;;;;;48.80;24.07;;;-0.40;99.90;;;;;;5033984;28;20303;-72
2022/01/10 07:04:10;;;;;;;50.23;23.80;;;-0.40;99.90;;;;;;5046834;28;20301;-72
2022/01/10 07:06:37;;;;;;;45.03;22.20;;;-0.30;99.90;;;;;;5035620;28;20215;-73
2022/01/10 07:09:04;;;;;;;47.67;22.87;;;-0.30;99.90;;;;;;5051491;28;20677;-73
2022/01/10 07:11:31;;;;;;;54.47;23.90;;;-0.30;99.90;;;;;;5044130;28;20210;-71
2022/01/10 07:13:59;;;;;;;46.93;21.73;;;-0.20;99.90;;;;;;5045669;28;20202;-70
2022/01/10 07:16:26;;;;;;;44.90;22.47;;;-0.30;99.90;;;;;;5047565;28;20226;-70
2022/01/10 07:18:53;;;;;;;48.67;24.43;;;-0.30;99.90;;;;;;5051655;28;20209;-70
2022/01/10 07:21:19;;;;;;;44.23;22.07;;;-0.30;99.90;;;;;;5052450;28;20307;-70
2022/01/10 07:23:48;;;;;;;45.03;21.37;;;-0.30;99.90;;;;;;5051750;28;20202;-70
2022/01/10 07:26:15;;;;;;;49.70;23.20;;;-0.30;99.90;;;;;;5048109;28;20210;-70
2022/01/10 07:28:42;;;;;;;48.37;23.10;;;-0.30;99.90;;;;;;5051689;28;20212;-71
2022/01/10 07:31:10;;;;;;;46.50;22.80;;;-0.20;99.90;;;;;;5051515;28;20297;-71
2022/01/10 07:33:37;;;;;;;45.40;21.73;;;-0.30;99.90;;;;;;5038770;28;20202;-70
2022/01/10 07:36:05;;;;;;;50.47;23.33;;;-0.30;99.90;;;;;;5046350;28;20263;-70
2022/01/10 07:38:35;;;;;;;47.10;23.00;;;-0.40;99.90;;;;;;5053023;28;20233;-73
2022/01/10 07:41:02;;;;;;;47.23;22.43;;;-0.30;99.90;;;;;;5035879;28;20268;-71
2022/01/10 07:43:29;;;;;;;44.27;22.67;;;-0.30;99.90;;;;;;5045659;28;20198;-69
2022/01/10 07:45:56;;;;;;;43.83;22.20;;;-0.40;99.90;;;;;;5048954;28;20220;-71
2022/01/10 07:48:25;;;;;;;41.27;21.43;;;-0.30;99.90;;;;;;5051374;28;20200;-71
2022/01/10 07:50:52;;;;;;;45.00;23.33;;;-0.30;99.90;;;;;;5051911;28;20321;-70
2022/01/10 07:53:19;;;;;;;45.60;23.17;;;-0.30;99.90;;;;;;5051541;28;20210;-71
2022/01/10 07:55:46;;;;;;;41.53;21.50;;;-0.30;99.90;;;;;;5042968;28;20234;-71
2022/01/10 07:58:13;;;;;;;48.50;23.00;;;-0.30;99.90;;;;;;5026472;28;20317;-70
2022/01/10 08:00:40;;;;;;;47.80;22.87;;;-0.20;99.90;;;;;;5031465;28;20260;-70
2022/01/10 08:03:07;;;;;;;46.77;24.63;;;-0.20;99.90;;;;;;5031214;28;20207;-72
2022/01/10 08:05:35;;;;;;;46.00;22.97;;;-0.20;99.90;;;;;;5033244;28;20206;-72
2022/01/10 08:08:03;;;;;;;48.60;24.07;;;-0.20;99.90;;;;;;5029589;28;20299;-71
2022/01/10 08:10:30;;;;;;;44.63;23.27;;;-0.20;99.90;;;;;;5030087;28;20660;-72
2022/01/10 08:12:57;;;;;;;44.17;23.27;;;-0.20;99.90;;;;;;5039544;28;20212;-71
2022/01/10 08:15:24;;;;;;;50.37;24.20;;;-0.20;99.90;;;;;;5047049;28;20217;-71
2022/01/10 08:17:51;;;;;;;46.53;24.60;;;-0.20;99.90;;;;;;5048075;28;20536;-71
2022/01/10 08:20:18;;;;;;;48.27;23.60;;;-0.20;99.90;;;;;;5051471;28;20213;-70
2022/01/10 08:22:46;;;;;;;42.03;22.13;;;-0.20;99.90;;;;;;5048760;28;20244;-70
2022/01/10 08:25:13;;;;;;;43.83;23.00;;;-0.20;99.90;;;;;;5030980;28;20210;-70
2022/01/10 08:27:40;;;;;;;43.30;22.70;;;-0.20;99.90;;;;;;5033640;28;20661;-70
2022/01/10 08:30:08;;;;;;;41.50;21.90;;;-0.20;99.90;;;;;;5045169;28;20695;-70
2022/01/10 08:32:35;;;;;;;45.30;22.70;;;-0.20;99.90;;;;;;5037592;28;20297;-71
2022/01/10 08:35:02;;;;;;;42.03;21.67;;;-0.20;99.90;;;;;;5031057;28;20579;-71
2022/01/10 08:37:29;;;;;;;43.67;21.00;;;-0.30;99.90;;;;;;5033673;28;20257;-72
2022/01/10 08:39:58;;;;;;;39.37;20.50;;;-0.30;99.90;;;;;;5032090;28;20582;-70
2022/01/10 08:42:26;;;;;;;39.67;20.83;;;-0.30;99.90;;;;;;5031949;28;20791;-70
2022/01/10 08:44:54;;;;;;;40.27;21.77;;;-0.30;99.90;;;;;;5038025;28;20222;-70
2022/01/10 08:47:20;;;;;;;37.17;21.13;;;-0.40;99.90;;;;;;5037565;28;20618;-69
2022/01/10 08:49:48;;;;;;;38.37;20.50;;;-0.30;99.90;;;;;;5042180;28;20672;-69
2022/01/10 08:52:15;;;;;;;39.10;20.30;;;-0.30;99.90;;;;;;5032722;28;20583;-70
2022/01/10 08:54:42;;;;;;;34.67;18.63;;;-0.30;99.90;;;;;;5041219;28;20570;-71
2022/01/10 08:57:10;;;;;;;34.97;18.23;;;-0.20;99.90;;;;;;5038271;28;20230;-71
2022/01/10 08:59:37;;;;;;;32.73;18.47;;;-0.20;99.90;;;;;;5039737;28;20292;-71
2022/01/10 09:02:04;;;;;;;35.97;18.73;;;-0.30;99.90;;;;;;5035996;28;20216;-71
2022/01/10 09:04:31;;;;;;;39.90;18.87;;;-0.20;99.90;;;;;;5047043;28;20209;-71
2022/01/10 09:07:00;;;;;;;33.23;17.50;;;-0.30;99.90;;;;;;5046819;28;20325;-70
2022/01/10 09:09:27;;;;;;;32.00;17.30;;;-0.30;99.90;;;;;;5045966;28;20229;-71
2022/01/10 09:11:54;;;;;;;35.47;17.73;;;-0.20;99.90;;;;;;5036774;28;20225;-71
2022/01/10 09:14:23;;;;;;;35.10;18.97;;;-0.20;99.90;;;;;;5043332;28;20202;-71
2022/01/10 09:16:49;;;;;;;34.07;18.67;;;-0.10;99.90;;;;;;5038071;28;20275;-70
2022/01/10 09:19:16;;;;;;;34.53;17.33;;;-0.10;99.90;;;;;;5040766;28;20302;-70
2022/01/10 09:21:43;;;;;;;33.43;17.13;;;0.00;99.90;;;;;;5037164;28;20205;-72
2022/01/10 09:24:10;;;;;;;32.77;16.00;;;0.10;99.90;;;;;;5037521;28;20300;-71
2022/01/10 09:26:37;;;;;;;31.53;17.00;;;0.20;99.90;;;;;;5037844;28;20206;-72
2022/01/10 09:29:04;;;;;;;29.60;16.37;;;0.10;99.90;;;;;;5045610;28;20285;-71
2022/01/10 09:31:33;;;;;;;29.23;15.77;;;0.20;99.90;;;;;;5044016;28;20282;-72
2022/01/10 09:34:01;;;;;;;32.80;15.87;;;0.20;99.90;;;;;;5040359;28;20214;-72
2022/01/10 09:36:29;;;;;;;33.13;15.60;;;0.30;99.90;;;;;;5042974;28;20220;-72
2022/01/10 09:38:58;;;;;;;31.73;15.97;;;0.50;99.90;;;;;;5040757;28;20868;-72
2022/01/10 09:41:26;;;;;;;34.17;17.07;;;0.70;99.90;;;;;;5044739;28;20214;-73
2022/01/10 09:43:56;;;;;;;31.40;16.10;;;0.90;99.90;;;;;;5039693;28;20312;-71
2022/01/10 09:46:24;;;;;;;34.97;17.20;;;1.20;99.90;;;;;;5045013;28;20214;-71
2022/01/10 09:48:53;;;;;;;33.33;17.47;;;1.70;99.90;;;;;;5041694;28;20278;-73
2022/01/10 09:51:22;;;;;;;30.93;15.77;;;2.10;99.90;;;;;;5031491;28;20203;-71
2022/01/10 09:53:50;;;;;;;30.30;16.40;;;2.70;99.90;;;;;;5049902;28;20202;-72
2022/01/10 09:56:17;;;;;;;28.27;16.33;;;3.20;99.90;;;;;;5052268;28;20287;-71
2022/01/10 09:58:44;;;;;;;30.03;17.17;;;3.60;99.90;;;;;;5034332;28;20229;-70
2022/01/10 10:01:15;;;;;;;30.60;15.80;;;4.20;99.90;;;;;;5034306;28;20202;-71
2022/01/10 10:03:44;;;;;;;32.87;17.40;;;5.30;99.90;;;;;;5037154;28;20210;-72
2022/01/10 10:06:13;;;;;;;28.23;16.17;;;6.60;99.90;;;;;;5031285;28;20260;-72
2022/01/10 10:08:40;;;;;;;31.53;16.87;;;7.50;99.90;;;;;;5042204;28;20203;-72
2022/01/10 10:11:08;;;;;;;31.47;16.07;;;8.30;99.90;;;;;;5045190;28;20206;-70
2022/01/10 10:13:42;;;;;;;29.60;17.20;;;8.90;98.50;;;;;;5039918;28;20211;-72
2022/01/10 10:16:14;;;;;;;31.47;17.83;;;9.20;95.40;;;;;;5039507;28;20201;-71
2022/01/10 10:18:43;;;;;;;25.43;15.70;;;9.90;93.40;;;;;;5036662;28;20258;-71
2022/01/10 10:21:16;;;;;;;28.43;16.60;;;10.10;86.20;;;;;;5034384;28;20207;-72
2022/01/10 10:23:46;;;;;;;30.93;17.03;;;10.20;86.30;;;;;;5039156;28;20205;-72
2022/01/10 10:26:17;;;;;;;29.30;16.37;;;10.60;82.90;;;;;;5039687;28;20253;-72
2022/01/10 10:28:46;;;;;;;26.47;14.20;;;11.00;79.10;;;;;;5039338;28;20202;-73
2022/01/10 10:31:13;;;;;;;28.80;16.33;;;11.40;73.90;;;;;;5045774;28;21500;-72
2022/01/10 10:33:48;;;;;;;24.87;14.13;;;11.50;69.30;;;;;;5045092;28;20651;-72
2022/01/10 10:36:18;;;;;;;28.77;13.00;;;11.60;66.70;;;;;;5039277;28;20210;-71
2022/01/10 10:38:45;;;;;;;24.03;13.57;;;11.80;66.20;;;;;;5045715;28;20229;-71
2022/01/10 10:41:13;;;;;;;21.10;13.33;;;12.20;64.40;;;;;;5044623;28;20216;-72
2022/01/10 10:43:41;;;;;;;22.07;13.37;;;12.40;63.20;;;;;;5037867;28;20329;-72
2022/01/10 10:46:12;;;;;;;21.13;11.93;;;12.10;58.90;;;;;;5037738;28;20214;-71
2022/01/10 10:48:40;;;;;;;19.37;11.40;;;11.20;56.90;;;;;;5041360;28;20616;-71
2022/01/10 10:51:07;;;;;;;23.10;12.57;;;10.20;58.50;;;;;;5027214;28;20588;-72
2022/01/10 10:53:35;;;;;;;23.10;13.70;;;9.20;59.70;;;;;;5035699;28;20199;-71
2022/01/10 10:56:04;;;;;;;19.10;11.03;;;8.20;61.60;;;;;;5037707;28;20205;-71
2022/01/10 10:58:32;;;;;;;21.47;11.93;;;7.20;63.30;;;;;;5036233;28;20222;-71
2022/01/10 11:01:00;;;;;;;18.57;10.40;;;6.40;65.80;;;;;;5038526;28;20205;-70
2022/01/10 11:03:27;;;;;;;20.33;10.80;;;6.40;77.80;;;;;;5033141;28;20202;-72
2022/01/10 11:05:59;;;;;;;17.70;10.60;;;7.00;72.90;;;;;;5045188;28;20209;-71
2022/01/10 11:08:27;;;;;;;17.97;10.83;;;7.10;69.20;;;;;;5035200;28;20237;-73
2022/01/10 11:10:56;;;;;;;15.20;9.97;;;8.00;78.90;;;;;;5041074;28;20630;-70
2022/01/10 11:13:24;;;;;;;15.47;9.13;;;9.50;70.30;;;;;;5039781;28;20550;-71
2022/01/10 11:15:52;;;;;;;16.37;9.33;;;10.40;69.70;;;;;;5046363;28;20264;-72
2022/01/10 11:18:21;;;;;;;27.87;9.20;;;11.30;60.20;;;;;;5049850;28;20236;-71
2022/01/10 11:20:50;;;;;;;13.90;8.67;;;11.40;57.00;;;;;;5039978;28;20275;-71
2022/01/10 11:23:17;;;;;;;12.53;8.27;;;11.70;57.00;;;;;;5025741;28;20210;-71
2022/01/10 11:25:44;;;;;;;11.47;7.77;;;12.30;56.10;;;;;;5039057;28;20210;-71
2022/01/10 11:28:22;;;;;;;9.17;6.83;;;13.30;55.40;;;;;;5047300;28;20547;-72
2022/01/10 11:30:51;;;;;;;14.43;8.17;;;14.10;52.40;;;;;;5048971;28;20324;-70
2022/01/10 11:33:19;;;;;;;12.20;7.57;;;15.10;52.30;;;;;;5049677;28;20206;-71
2022/01/10 11:35:49;;;;;;;12.73;7.97;;;16.10;48.20;;;;;;5042870;28;20301;-71
2022/01/10 11:38:26;;;;;;;11.20;7.60;;;16.50;45.30;;;;;;5041603;28;20685;-73
2022/01/10 11:40:55;;;;;;;12.23;8.27;;;17.00;45.60;;;;;;5047137;28;20697;-72
2022/01/10 11:43:41;;;;;;;14.90;7.97;;;17.60;44.00;;;;;;5038061;28;20211;-71
2022/01/10 11:46:16;;;;;;;11.83;7.10;;;18.40;43.50;;;;;;5035806;28;20233;-70
2022/01/10 11:48:50;;;;;;;9.80;6.97;;;18.40;40.50;;;;;;5040352;28;20719;-70
2022/01/10 11:51:20;;;;;;;10.50;7.23;;;16.50;37.70;;;;;;5031390;28;20210;-71
2022/01/10 11:53:50;;;;;;;11.27;6.53;;;14.30;39.30;;;;;;5021321;28;20206;-71
2022/01/10 11:56:27;;;;;;;9.80;6.40;;;12.30;42.00;;;;;;5024944;28;20230;-71
2022/01/10 11:59:27;;;;;;;11.13;6.60;;;10.50;44.20;;;;;;5030774;28;20225;-71
2022/01/10 12:01:59;;;;;;;10.67;6.60;;;8.80;48.30;;;;;;5037189;28;20221;-71
2022/01/10 12:04:28;;;;;;;11.70;6.50;;;7.90;50.60;;;;;;5031143;28;20209;-71
2022/01/10 12:06:55;;;;;;;9.87;6.57;;;6.90;52.40;;;;;;5030080;28;20218;-71
2022/01/10 12:09:23;;;;;;;11.67;6.27;;;6.10;54.30;;;;;;5032045;28;20570;-71
2022/01/10 12:11:52;;;;;;;12.73;6.60;;;5.40;56.10;;;;;;5036970;28;20683;-71
2022/01/10 12:14:20;;;;;;;10.43;7.23;;;5.00;57.90;;;;;;5043508;28;20659;-71
2022/01/10 12:16:49;;;;;;;10.30;6.00;;;4.70;59.10;;;;;;5037113;28;20590;-71
2022/01/10 12:19:16;;;;;;;11.33;7.03;;;4.40;59.90;;;;;;5036707;28;20222;-71
2022/01/10 12:21:43;;;;;;;16.00;7.33;;;4.10;61.00;;;;;;5037545;28;20574;-71
2022/01/10 12:24:10;;;;;;;9.97;6.53;;;3.90;62.40;;;;;;5037421;28;20207;-70
2022/01/10 12:26:38;;;;;;;12.53;7.20;;;3.70;63.50;;;;;;5040588;28;20209;-71
2022/01/10 12:29:06;;;;;;;13.47;6.40;;;3.60;64.50;;;;;;5045549;28;20203;-71
2022/01/10 12:31:35;;;;;;;10.10;6.33;;;3.50;65.70;;;;;;5044226;28;20210;-71
2022/01/10 12:34:04;;;;;;;10.70;5.97;;;3.40;66.00;;;;;;5037212;28;20244;-73
2022/01/10 12:36:33;;;;;;;10.97;6.00;;;3.30;66.50;;;;;;5037964;28;20210;-71
2022/01/10 12:39:03;;;;;;;11.27;6.60;;;3.20;67.30;;;;;;5041742;28;20210;-72
2022/01/10 12:41:31;;;;;;;11.53;6.33;;;3.10;68.10;;;;;;5032955;28;20216;-71